createdAt,value
2022-09-04T00:05:20.325Z,1.33
2022-09-04T00:10:33.516Z,1.90
2022-09-04T00:15:47.876Z,1.73
2022-09-04T00:21:04.463Z,1.53
2022-09-04T00:26:49.170Z,1.37
2022-09-04T00:32:10.702Z,1.50
2022-09-04T00:37:18.403Z,1.57
2022-09-04T00:43:03.968Z,1.50
2022-09-04T00:48:31.929Z,1.50
2022-09-04T00:53:53.147Z,1.30
2022-09-04T00:59:15.551Z,1.73
2022-09-04T01:04:22.837Z,1.30
2022-09-04T01:09:44.187Z,1.40
2022-09-04T01:14:58.322Z,1.37
2022-09-04T01:20:31.597Z,1.30
2022-09-04T01:25:55.180Z,1.50
2022-09-04T01:31:12.471Z,1.57
2022-09-04T01:36:40.021Z,1.60
2022-09-04T01:42:06.941Z,1.70
2022-09-04T01:47:30.206Z,1.23
2022-09-04T01:52:38.465Z,1.90
2022-09-04T01:57:49.844Z,2.20
2022-09-04T02:02:53.538Z,1.80
2022-09-04T02:08:07.300Z,2.00
2022-09-04T02:13:29.481Z,1.63
2022-09-04T02:18:50.919Z,1.73
2022-09-04T02:24:09.248Z,2.20
2022-09-04T02:29:42.967Z,1.93
2022-09-04T02:35:03.833Z,1.50
2022-09-04T02:40:27.673Z,1.77
2022-09-04T02:45:40.658Z,1.70
2022-09-04T02:51:13.887Z,1.90
2022-09-04T02:56:48.555Z,1.73
2022-09-04T03:01:59.442Z,1.80
2022-09-04T03:07:24.653Z,1.80
2022-09-04T03:13:00.114Z,1.80
2022-09-04T03:18:26.549Z,2.47
2022-09-04T03:23:46.138Z,1.97
2022-09-04T03:28:49.142Z,2.60
2022-09-04T03:34:05.884Z,2.27
2022-09-04T03:39:49.660Z,2.70
2022-09-04T03:44:54.861Z,3.50
2022-09-04T03:50:19.123Z,2.77
2022-09-04T03:56:01.354Z,2.97
2022-09-04T04:01:13.308Z,3.47
2022-09-04T04:06:20.182Z,3.20
2022-09-04T04:11:43.749Z,3.27
2022-09-04T04:17:04.770Z,3.43
2022-09-04T04:22:52.728Z,4.40
2022-09-04T04:28:24.226Z,4.07
2022-09-04T04:33:26.578Z,3.67
2022-09-04T04:38:39.705Z,3.33
2022-09-04T04:43:59.736Z,2.57
2022-09-04T04:49:28.927Z,3.00
2022-09-04T04:54:40.280Z,3.20
2022-09-04T04:59:56.318Z,3.17
2022-09-04T05:05:13.712Z,3.00
2022-09-04T05:10:34.714Z,3.53
2022-09-04T05:16:08.436Z,3.20
2022-09-04T05:21:23.442Z,2.73
2022-09-04T05:26:46.696Z,3.60
2022-09-04T05:31:56.989Z,3.50
2022-09-04T05:37:15.967Z,4.00
2022-09-04T05:42:49.791Z,4.10
2022-09-04T05:48:20.266Z,3.53
2022-09-04T05:53:40.312Z,4.13
2022-09-04T05:59:16.405Z,3.70
2022-09-04T06:04:37.325Z,4.30
2022-09-04T06:09:57.646Z,4.50
2022-09-04T06:15:21.771Z,4.00
2022-09-04T06:20:30.357Z,5.20
2022-09-04T06:26:07.805Z,4.13
2022-09-04T06:31:12.777Z,4.10
2022-09-04T06:36:33.932Z,4.10
2022-09-04T06:41:44.712Z,4.10
2022-09-04T06:47:14.983Z,4.50
2022-09-04T06:52:33.661Z,3.80
2022-09-04T06:58:06.175Z,4.13
2022-09-04T07:03:34.674Z,4.50
2022-09-04T07:09:01.182Z,4.60
2022-09-04T07:14:35.613Z,3.70
2022-09-04T07:20:32.423Z,3.67
2022-09-04T07:25:44.248Z,3.50
2022-09-04T07:30:56.711Z,3.33
2022-09-04T07:36:14.354Z,3.30
2022-09-04T07:41:36.415Z,3.30
2022-09-04T07:47:12.049Z,3.33
2022-09-04T07:52:32.123Z,3.87
2022-09-04T07:57:47.910Z,2.90
2022-09-04T08:03:12.091Z,3.00
2022-09-04T08:08:22.302Z,3.13
2022-09-04T08:13:54.158Z,2.63
2022-09-04T08:19:23.192Z,2.80
2022-09-04T08:25:07.430Z,2.40
2022-09-04T08:30:13.385Z,2.93
2022-09-04T08:35:32.053Z,2.10
2022-09-04T08:41:11.130Z,2.27
2022-09-04T08:46:52.962Z,2.20
2022-09-04T08:52:25.005Z,2.27
2022-09-04T08:57:49.824Z,2.10
2022-09-04T09:03:17.258Z,2.13
2022-09-04T09:08:57.916Z,2.40
2022-09-04T09:14:50.994Z,2.72
2022-09-04T09:20:09.202Z,3.03
2022-09-04T09:25:20.761Z,2.35
2022-09-04T09:30:24.169Z,2.40
2022-09-04T09:35:46.334Z,2.40
2022-09-04T09:40:53.872Z,2.70
2022-09-04T09:46:41.065Z,2.63
2022-09-04T09:52:14.469Z,2.33
2022-09-04T09:57:47.822Z,3.10
2022-09-04T10:03:02.234Z,2.85
2022-09-04T10:08:18.067Z,2.70
2022-09-04T10:13:51.001Z,2.80
2022-09-04T10:19:39.205Z,2.60
2022-09-04T10:25:02.288Z,2.60
2022-09-04T10:30:24.629Z,3.15
2022-09-04T10:35:46.842Z,3.13
2022-09-04T10:41:05.000Z,3.00
2022-09-04T10:46:34.925Z,3.28
2022-09-04T10:51:52.053Z,3.60
2022-09-04T10:57:37.382Z,3.60
2022-09-04T11:03:03.400Z,3.83
2022-09-04T11:08:36.473Z,3.30
2022-09-04T11:14:16.431Z,3.80
2022-09-04T11:20:03.895Z,3.33
2022-09-04T11:25:33.871Z,3.35
2022-09-04T11:31:09.901Z,3.70
2022-09-04T11:36:36.688Z,3.70
2022-09-04T11:42:02.116Z,3.72
2022-09-04T11:47:46.090Z,3.88
2022-09-04T11:53:12.799Z,3.08
2022-09-04T11:58:53.393Z,3.47
2022-09-04T12:04:23.032Z,3.85
2022-09-04T12:09:44.340Z,6.72
2022-09-04T12:15:24.147Z,20.23
2022-09-04T12:20:45.649Z,4.05
2022-09-04T12:26:09.239Z,3.53
2022-09-04T12:31:26.165Z,3.45
2022-09-04T12:36:41.189Z,3.53
2022-09-04T12:42:12.523Z,3.35
2022-09-04T12:47:29.022Z,3.40
2022-09-04T12:53:01.008Z,3.50
2022-09-04T12:58:32.565Z,3.40
2022-09-04T13:04:27.493Z,3.80
2022-09-04T13:09:36.183Z,4.57
2022-09-04T13:14:57.636Z,5.43
2022-09-04T13:20:17.845Z,3.78
2022-09-04T13:25:32.947Z,3.85
2022-09-04T13:31:00.141Z,3.67
2022-09-04T13:36:19.230Z,3.33
2022-09-04T13:41:48.412Z,2.88
2022-09-04T13:47:21.078Z,3.88
2022-09-04T13:52:32.432Z,3.20
2022-09-04T13:57:46.358Z,3.25
2022-09-04T14:02:55.874Z,3.28
2022-09-04T14:08:08.783Z,3.67
2022-09-04T14:14:03.322Z,3.58
2022-09-04T14:19:33.369Z,3.70
2022-09-04T14:24:56.372Z,2.97
2022-09-04T14:30:13.650Z,3.60
2022-09-04T14:35:36.565Z,4.15
2022-09-04T14:41:02.209Z,3.38
2022-09-04T14:46:30.360Z,3.58
2022-09-04T14:51:39.155Z,3.35
2022-09-04T14:56:48.342Z,3.15
2022-09-04T15:02:03.256Z,3.35
2022-09-04T15:07:46.709Z,2.90
2022-09-04T15:13:27.949Z,2.72
2022-09-04T15:18:53.568Z,3.15
2022-09-04T15:24:07.935Z,2.80
2022-09-04T15:29:27.312Z,2.58
2022-09-04T15:50:20.802Z,3.05
2022-09-04T15:55:29.503Z,2.88
2022-09-04T16:00:36.829Z,3.92
2022-09-04T16:05:50.212Z,4.63
2022-09-04T16:11:15.850Z,4.45
2022-09-04T16:16:22.860Z,4.57
2022-09-04T16:21:41.754Z,3.85
2022-09-04T16:26:52.799Z,3.55
2022-09-04T16:31:57.911Z,4.40
2022-09-04T16:37:22.183Z,3.17
2022-09-04T16:42:29.248Z,3.40
2022-09-04T16:47:46.105Z,3.35
2022-09-04T16:53:14.177Z,3.65
2022-09-04T16:58:29.978Z,3.08
2022-09-04T17:03:46.745Z,3.10
2022-09-04T17:08:59.013Z,4.03
2022-09-04T17:14:40.484Z,3.38
2022-09-04T17:19:43.002Z,3.42
2022-09-04T17:29:05.205Z,3.35
2022-09-04T17:30:28.832Z,3.60
2022-09-04T17:40:39.644Z,3.60
2022-09-04T17:41:53.083Z,4.20
2022-09-04T17:47:20.008Z,4.00
2022-09-04T17:52:32.216Z,4.05
2022-09-04T17:57:37.368Z,4.88
2022-09-04T18:02:49.805Z,6.60
2022-09-04T18:08:08.974Z,5.00
2022-09-04T18:13:37.803Z,6.27
2022-09-04T18:18:54.689Z,5.60
2022-09-04T18:24:40.340Z,10.83
2022-09-04T18:32:23.474Z,9.93
2022-09-04T18:37:25.652Z,18.10
2022-09-04T18:47:40.272Z,8.07
2022-09-04T18:50:50.180Z,10.73
2022-09-04T18:51:52.115Z,7.20
2022-09-04T18:57:01.129Z,7.90
2022-09-04T19:02:12.378Z,7.50
2022-09-04T19:07:32.450Z,5.90
2022-09-04T19:12:47.987Z,5.87
2022-09-04T19:17:56.795Z,6.10
2022-09-04T19:23:15.332Z,5.73
2022-09-04T19:28:45.667Z,7.20
2022-09-04T19:34:21.912Z,7.57
2022-09-04T19:46:00.972Z,6.03
2022-09-04T19:46:05.114Z,5.63
2022-09-04T19:53:21.749Z,6.30
2022-09-04T19:56:23.473Z,6.63
2022-09-04T20:01:38.001Z,6.80
2022-09-04T20:06:47.864Z,5.93
2022-09-04T20:12:16.658Z,5.87
2022-09-04T20:17:21.804Z,5.23
2022-09-04T20:22:30.095Z,5.60
2022-09-04T20:27:43.391Z,5.80
2022-09-04T20:33:02.385Z,5.97
2022-09-04T20:38:32.971Z,5.77
2022-09-04T20:44:11.633Z,5.70
2022-09-04T20:52:48.888Z,6.20
2022-09-04T20:54:55.694Z,6.40
2022-09-04T21:03:22.402Z,5.97
2022-09-04T21:06:07.296Z,6.53
2022-09-04T21:11:40.980Z,6.20
2022-09-04T21:17:27.526Z,5.67
2022-09-04T21:23:05.599Z,5.23
2022-09-04T21:28:36.061Z,5.17
2022-09-04T21:33:53.526Z,5.20
2022-09-04T21:39:34.610Z,4.57
2022-09-04T21:45:00.578Z,4.67
2022-09-04T21:50:23.018Z,4.23
2022-09-04T21:59:09.926Z,4.37
2022-09-04T22:02:40.619Z,6.03
2022-09-04T22:11:41.935Z,3.67
2022-09-04T22:13:47.919Z,3.63
2022-09-04T22:19:41.476Z,3.37
2022-09-04T22:25:11.077Z,3.67
2022-09-04T22:30:20.039Z,4.30
2022-09-04T22:35:46.903Z,5.83
2022-09-04T22:41:01.570Z,3.50
2022-09-04T22:46:17.788Z,3.67
2022-09-04T22:52:00.914Z,5.77
2022-09-04T22:57:43.881Z,3.50
2022-09-04T23:03:32.879Z,3.60
2022-09-04T23:13:46.678Z,3.50
2022-09-04T23:14:43.132Z,4.17
2022-09-04T23:25:56.804Z,4.63
2022-09-04T23:26:46.819Z,3.97
2022-09-04T23:31:53.073Z,2.60
2022-09-04T23:37:31.293Z,3.10
2022-09-04T23:42:36.821Z,3.27
2022-09-04T23:47:47.153Z,2.87
2022-09-04T23:53:12.941Z,3.10
2022-09-04T23:59:07.370Z,2.60
